Time;durP1;ratioP1;P1;durP2;ratioP2;P2;SDS_P1;SDS_P2;PMS_P1;PMS_P2;Temp;Humidity;BMP_temperature;BMP_pressure;BME280_temperature;BME280_humidity;BME280_pressure;Samples;Min_cycle;Max_cycle;Signal;HPM_P1;HPM_P2
2023/03/23 00:00:13;;;;;;;11.00;2.50;;;18.80;52.20;;;;;;5055809;28;20220;-85
2023/03/23 00:02:41;;;;;;;12.57;2.88;;;18.70;52.10;;;;;;5056567;28;20203;-85
2023/03/23 00:05:09;;;;;;;9.50;3.05;;;18.70;52.10;;;;;;5056147;28;20211;-86
2023/03/23 00:07:36;;;;;;;9.63;2.83;;;18.80;52.20;;;;;;5056018;28;20253;-86
2023/03/23 00:10:06;;;;;;;9.95;2.80;;;18.70;52.10;;;;;;5056434;28;20266;-86
2023/03/23 00:12:34;;;;;;;9.93;2.58;;;18.70;52.10;;;;;;5055814;28;20255;-86
2023/03/23 00:15:01;;;;;;;10.27;2.72;;;18.70;52.10;;;;;;5055956;28;20294;-84
2023/03/23 00:17:29;;;;;;;8.23;2.90;;;18.70;52.10;;;;;;5056342;28;20245;-86
2023/03/23 00:19:57;;;;;;;13.52;3.85;;;18.70;52.10;;;;;;5055608;28;20277;-85
2023/03/23 00:22:24;;;;;;;11.57;3.17;;;18.70;52.10;;;;;;5055795;28;20254;-86
2023/03/23 00:24:52;;;;;;;13.88;3.33;;;18.70;52.10;;;;;;5055885;28;20219;-85
2023/03/23 00:27:22;;;;;;;9.68;2.70;;;18.70;52.10;;;;;;5055986;28;20191;-85
2023/03/23 00:29:52;;;;;;;10.52;2.58;;;18.70;52.20;;;;;;5055674;28;20316;-86
2023/03/23 00:32:20;;;;;;;9.13;2.63;;;18.70;52.20;;;;;;5054985;28;20704;-85
2023/03/23 00:34:49;;;;;;;12.82;3.38;;;18.70;52.10;;;;;;5055431;28;20696;-84
2023/03/23 00:37:17;;;;;;;11.00;3.03;;;18.70;52.20;;;;;;5055602;28;20195;-86
2023/03/23 00:39:45;;;;;;;11.80;3.35;;;18.70;52.10;;;;;;5055755;28;20230;-85
2023/03/23 00:42:13;;;;;;;12.20;3.22;;;18.70;52.10;;;;;;5055179;28;20245;-85
2023/03/23 00:44:43;;;;;;;11.85;2.72;;;18.70;52.20;;;;;;5055260;28;20215;-85
2023/03/23 00:47:12;;;;;;;9.45;3.15;;;18.70;52.20;;;;;;5054932;28;20641;-86
2023/03/23 00:49:40;;;;;;;14.57;3.30;;;18.70;52.20;;;;;;5055127;28;20697;-86
2023/03/23 00:52:08;;;;;;;10.43;2.88;;;18.70;52.20;;;;;;5055200;28;20227;-85
2023/03/23 00:54:37;;;;;;;10.15;2.75;;;18.70;52.10;;;;;;5055229;28;20644;-83
2023/03/23 00:57:06;;;;;;;8.80;2.70;;;18.60;52.10;;;;;;5055581;28;20207;-86
2023/03/23 00:59:34;;;;;;;15.93;3.60;;;18.60;52.10;;;;;;5055045;28;20689;-85
2023/03/23 01:02:02;;;;;;;11.98;3.60;;;18.60;52.10;;;;;;5054728;28;20615;-85
2023/03/23 01:04:31;;;;;;;12.13;2.80;;;18.60;52.10;;;;;;5054964;28;20219;-85
2023/03/23 01:07:00;;;;;;;12.60;3.35;;;18.60;52.10;;;;;;5055393;28;20230;-85
2023/03/23 01:09:29;;;;;;;8.57;3.08;;;18.60;52.10;;;;;;5055066;28;20212;-85
2023/03/23 01:11:56;;;;;;;10.95;2.92;;;18.60;52.10;;;;;;5054457;28;20277;-85
2023/03/23 01:14:25;;;;;;;10.93;2.75;;;18.60;52.70;;;;;;5055231;28;20298;-85
2023/03/23 01:16:52;;;;;;;10.77;2.63;;;18.60;52.10;;;;;;5054423;28;20188;-86
2023/03/23 01:19:21;;;;;;;8.70;2.50;;;18.60;52.00;;;;;;5054607;28;20216;-85
2023/03/23 01:21:48;;;;;;;12.77;3.47;;;18.60;52.10;;;;;;5054916;28;20257;-85
2023/03/23 01:24:15;;;;;;;13.27;3.03;;;18.60;52.00;;;;;;5054675;28;20220;-86
2023/03/23 01:26:43;;;;;;;9.93;2.50;;;18.60;52.00;;;;;;5054236;28;20233;-85
2023/03/23 01:29:10;;;;;;;9.68;2.50;;;18.50;52.00;;;;;;5054908;28;20224;-85
2023/03/23 01:31:38;;;;;;;7.78;2.50;;;18.60;52.00;;;;;;5054244;28;20261;-85
2023/03/23 01:34:05;;;;;;;11.35;2.90;;;18.60;52.00;;;;;;5053843;28;20235;-85
2023/03/23 01:36:34;;;;;;;6.82;2.50;;;18.60;52.00;;;;;;5054606;28;20200;-85
2023/03/23 01:39:03;;;;;;;8.35;2.42;;;18.60;52.00;;;;;;5054470;28;20708;-86
2023/03/23 01:41:31;;;;;;;8.90;2.45;;;18.60;52.00;;;;;;5054014;28;20231;-85
2023/03/23 01:44:03;;;;;;;11.13;2.65;;;18.60;52.00;;;;;;5054284;28;20227;-86
2023/03/23 01:46:32;;;;;;;9.45;2.58;;;18.60;52.00;;;;;;5054343;28;20198;-85
2023/03/23 01:49:06;;;;;;;8.75;2.30;;;18.60;52.00;;;;;;5054301;28;20215;-86
2023/03/23 01:51:38;;;;;;;9.05;2.92;;;18.50;51.90;;;;;;5053909;28;20261;-86
2023/03/23 01:54:08;;;;;;;14.23;2.60;;;18.50;51.90;;;;;;5054127;28;20277;-85
2023/03/23 01:56:44;;;;;;;7.20;2.28;;;18.50;52.50;;;;;;5054126;28;20234;-85
2023/03/23 01:59:13;;;;;;;12.25;2.60;;;18.50;51.90;;;;;;5054003;28;20223;-85
2023/03/23 02:01:44;;;;;;;7.97;2.28;;;18.50;51.90;;;;;;5053085;28;20180;-85
2023/03/23 02:04:14;;;;;;;7.85;2.22;;;18.50;51.90;;;;;;5054032;28;20281;-85
2023/03/23 02:06:44;;;;;;;8.23;2.45;;;18.50;51.90;;;;;;5053796;28;20251;-85
2023/03/23 02:09:13;;;;;;;12.55;2.72;;;18.50;51.90;;;;;;5054167;28;20275;-85
2023/03/23 02:11:40;;;;;;;8.15;2.25;;;18.50;51.90;;;;;;5053613;28;20269;-85
2023/03/23 02:14:08;;;;;;;9.35;2.58;;;18.50;51.90;;;;;;5053695;28;20273;-85
2023/03/23 02:16:44;;;;;;;6.90;2.13;;;18.50;51.80;;;;;;5053918;28;20218;-86
2023/03/23 02:19:37;;;;;;;7.22;2.40;;;18.50;51.90;;;;;;5053869;28;20754;-86
2023/03/23 02:22:25;;;;;;;15.05;3.50;;;18.50;51.90;;;;;;5051010;28;20249;-85
2023/03/23 02:25:00;;;;;;;9.98;2.58;;;18.50;51.90;;;;;;5053525;28;20220;-85
2023/03/23 02:28:13;;;;;;;6.60;2.28;;;18.50;51.90;;;;;;5053839;28;20218;-85
2023/03/23 02:30:57;;;;;;;7.57;2.20;;;18.50;51.80;;;;;;5053334;28;20301;-85
2023/03/23 02:33:43;;;;;;;7.47;2.08;;;18.50;51.80;;;;;;5052713;28;20281;-85
2023/03/23 02:36:17;;;;;;;8.52;2.42;;;18.40;51.80;;;;;;5053148;28;20726;-85
2023/03/23 02:38:51;;;;;;;9.05;2.42;;;18.50;51.80;;;;;;5053561;28;20223;-86
2023/03/23 02:41:23;;;;;;;8.57;2.40;;;18.40;51.80;;;;;;5053628;28;20204;-85
2023/03/23 02:43:51;;;;;;;10.70;2.30;;;18.40;51.80;;;;;;5053169;28;20264;-86
2023/03/23 02:46:21;;;;;;;6.28;2.13;;;18.40;51.80;;;;;;5052831;28;20759;-84
2023/03/23 02:48:56;;;;;;;10.63;2.40;;;18.40;51.80;;;;;;5053409;28;20227;-85
2023/03/23 02:51:25;;;;;;;9.35;2.22;;;18.40;51.80;;;;;;5053185;28;20635;-85
2023/03/23 02:53:56;;;;;;;9.15;2.40;;;18.40;51.80;;;;;;5052548;28;20319;-86
2023/03/23 02:56:27;;;;;;;7.28;2.17;;;18.40;51.80;;;;;;5053092;28;20203;-85
2023/03/23 02:58:56;;;;;;;7.45;2.47;;;18.40;51.80;;;;;;5053154;28;20223;-86
2023/03/23 03:02:00;;;;;;;9.60;2.35;;;18.40;51.70;;;;;;5052437;28;20187;-85
2023/03/23 03:04:31;;;;;;;7.30;2.53;;;18.40;51.70;;;;;;5052835;28;20272;-85
2023/03/23 03:07:21;;;;;;;9.18;2.38;;;18.40;51.80;;;;;;5053243;28;20211;-85
2023/03/23 03:09:51;;;;;;;10.40;2.85;;;18.40;51.80;;;;;;5053146;28;20223;-85
2023/03/23 03:12:30;;;;;;;8.70;2.38;;;18.40;51.80;;;;;;5051353;28;20618;-85
2023/03/23 03:15:05;;;;;;;12.00;2.70;;;18.40;51.80;;;;;;5052713;28;20231;-86
2023/03/23 03:17:35;;;;;;;11.48;2.50;;;18.40;51.80;;;;;;5052737;28;20183;-86
2023/03/23 03:20:09;;;;;;;9.82;2.65;;;18.40;51.80;;;;;;5053035;28;20226;-86
2023/03/23 03:22:41;;;;;;;7.68;2.75;;;18.40;51.80;;;;;;5052306;28;20196;-85
2023/03/23 03:25:12;;;;;;;8.60;2.85;;;18.40;51.80;;;;;;5052660;28;20646;-85
2023/03/23 03:27:41;;;;;;;10.20;2.65;;;18.40;51.80;;;;;;5052563;28;20566;-85
2023/03/23 03:30:14;;;;;;;8.70;2.63;;;18.40;51.80;;;;;;5052677;28;20228;-85
2023/03/23 03:32:48;;;;;;;10.27;2.65;;;18.40;51.80;;;;;;5052012;28;20232;-85
2023/03/23 03:35:18;;;;;;;9.82;2.60;;;18.40;51.80;;;;;;5052812;28;20215;-86
2023/03/23 03:37:46;;;;;;;10.90;2.72;;;18.30;51.90;;;;;;5052549;28;20289;-86
2023/03/23 03:40:17;;;;;;;9.63;2.83;;;18.40;51.80;;;;;;5052810;28;20227;-86
2023/03/23 03:42:45;;;;;;;10.75;3.22;;;18.40;51.80;;;;;;5052514;28;20187;-86
2023/03/23 03:45:15;;;;;;;11.05;2.83;;;18.40;51.90;;;;;;5052366;28;20759;-86
2023/03/23 03:47:42;;;;;;;9.70;2.42;;;18.30;51.80;;;;;;5052792;28;20204;-86
2023/03/23 03:50:10;;;;;;;12.02;3.10;;;18.30;51.80;;;;;;5052692;28;20234;-86
2023/03/23 03:52:40;;;;;;;9.45;2.95;;;18.30;51.80;;;;;;5052453;28;20265;-86
2023/03/23 03:55:09;;;;;;;6.25;2.47;;;18.30;51.80;;;;;;5052207;28;20215;-86
2023/03/23 03:57:37;;;;;;;9.52;3.38;;;18.30;51.80;;;;;;5052350;28;20713;-86
2023/03/23 04:00:14;;;;;;;8.98;2.55;;;18.30;51.80;;;;;;5052469;28;20270;-86
2023/03/23 04:02:42;;;;;;;7.75;3.20;;;18.30;51.80;;;;;;5052026;28;20190;-85
2023/03/23 04:05:11;;;;;;;11.25;2.80;;;18.30;51.80;;;;;;5052472;28;20219;-86
2023/03/23 04:07:41;;;;;;;8.93;2.78;;;18.30;51.80;;;;;;5052610;28;20195;-85
2023/03/23 04:10:12;;;;;;;10.85;3.00;;;18.30;51.80;;;;;;5052489;28;20216;-86
2023/03/23 04:12:40;;;;;;;9.15;2.72;;;18.30;51.80;;;;;;5052165;28;20635;-85
2023/03/23 04:15:09;;;;;;;11.18;2.63;;;18.30;51.80;;;;;;5052471;28;20277;-86
2023/03/23 04:17:37;;;;;;;9.93;2.78;;;18.30;51.80;;;;;;5052501;28;20221;-85
2023/03/23 04:20:12;;;;;;;10.32;3.00;;;18.30;51.80;;;;;;5052262;28;20588;-84
2023/03/23 04:22:43;;;;;;;10.30;2.55;;;18.30;51.80;;;;;;5052237;28;20211;-86
2023/03/23 04:25:12;;;;;;;9.32;2.60;;;18.30;51.80;;;;;;5055403;28;20223;-86
2023/03/23 04:27:43;;;;;;;10.80;2.88;;;18.30;51.80;;;;;;5056004;28;20211;-86
2023/03/23 04:30:11;;;;;;;11.85;2.45;;;18.30;51.80;;;;;;5055428;28;20251;-85
2023/03/23 04:32:41;;;;;;;11.27;2.55;;;18.30;51.80;;;;;;5055925;28;20322;-85
2023/03/23 04:35:10;;;;;;;11.40;3.10;;;18.30;51.90;;;;;;5054777;28;20310;-86
2023/03/23 04:37:40;;;;;;;9.57;3.03;;;18.30;51.80;;;;;;5054292;28;20287;-85
2023/03/23 04:40:11;;;;;;;11.55;3.00;;;18.20;51.80;;;;;;5065972;28;20269;-85
2023/03/23 04:42:39;;;;;;;8.55;2.78;;;18.30;51.80;;;;;;5055516;28;20192;-85
2023/03/23 04:45:08;;;;;;;12.57;3.28;;;18.20;51.80;;;;;;5055773;28;20265;-85
2023/03/23 04:47:39;;;;;;;13.63;2.80;;;18.30;51.90;;;;;;5055245;28;20653;-85
2023/03/23 04:50:09;;;;;;;12.45;3.20;;;18.30;51.80;;;;;;5055353;28;20216;-86
2023/03/23 04:52:40;;;;;;;11.15;3.03;;;18.30;51.80;;;;;;5055094;28;20583;-86
2023/03/23 04:55:09;;;;;;;13.23;3.05;;;18.30;51.80;;;;;;5055766;28;20247;-86
2023/03/23 04:57:36;;;;;;;8.77;2.30;;;18.30;51.80;;;;;;5055106;28;20195;-85
2023/03/23 05:00:08;;;;;;;13.00;2.72;;;18.20;51.80;;;;;;5054765;28;20774;-85
2023/03/23 05:02:36;;;;;;;10.52;2.60;;;18.30;51.80;;;;;;5055085;28;20258;-86
2023/03/23 05:05:04;;;;;;;13.65;2.67;;;18.20;51.80;;;;;;5053946;28;20277;-85
2023/03/23 05:07:31;;;;;;;13.68;3.10;;;18.30;52.50;;;;;;5055055;28;20534;-86
2023/03/23 05:09:59;;;;;;;10.25;2.95;;;18.20;51.70;;;;;;5054712;28;20265;-85
2023/03/23 05:12:27;;;;;;;10.63;2.47;;;18.20;51.70;;;;;;5055140;28;20196;-86
2023/03/23 05:14:54;;;;;;;13.32;2.42;;;18.20;51.70;;;;;;5055224;28;20229;-85
2023/03/23 05:17:23;;;;;;;8.25;2.30;;;18.20;51.80;;;;;;5054454;28;20249;-86
2023/03/23 05:19:51;;;;;;;8.23;2.75;;;18.20;51.70;;;;;;5055247;28;20607;-86
2023/03/23 05:22:20;;;;;;;12.00;2.70;;;18.20;51.70;;;;;;5054798;28;20204;-86
2023/03/23 05:24:48;;;;;;;8.43;2.60;;;18.30;51.80;;;;;;5054550;28;20216;-86
2023/03/23 05:27:17;;;;;;;9.98;2.53;;;18.20;51.80;;;;;;5055129;28;20261;-86
2023/03/23 05:29:48;;;;;;;11.30;2.47;;;18.20;51.70;;;;;;5055008;28;20642;-86
2023/03/23 05:32:15;;;;;;;10.98;2.42;;;18.20;51.70;;;;;;5054211;28;20219;-85
2023/03/23 05:34:43;;;;;;;9.88;2.70;;;18.20;51.70;;;;;;5054065;28;20231;-85
2023/03/23 05:37:11;;;;;;;7.45;2.25;;;18.20;51.70;;;;;;5054193;28;20210;-85
2023/03/23 05:39:40;;;;;;;8.65;2.33;;;18.20;51.70;;;;;;5054762;28;20219;-85
2023/03/23 05:42:07;;;;;;;6.53;2.00;;;18.20;51.70;;;;;;5054256;28;20195;-86
2023/03/23 05:44:35;;;;;;;10.77;2.53;;;18.20;51.70;;;;;;5054491;28;20693;-85
2023/03/23 05:47:04;;;;;;;7.25;2.40;;;18.20;51.70;;;;;;5054468;28;20200;-86
2023/03/23 05:49:32;;;;;;;8.57;2.60;;;18.20;52.40;;;;;;5054421;28;20568;-86
2023/03/23 05:51:59;;;;;;;7.22;2.40;;;18.20;51.80;;;;;;5054264;28;20322;-85
2023/03/23 05:54:26;;;;;;;7.70;2.40;;;18.20;51.70;;;;;;5054086;28;20289;-85
2023/03/23 05:56:54;;;;;;;9.75;2.28;;;18.30;51.80;;;;;;5054504;28;20253;-86
2023/03/23 05:59:21;;;;;;;9.30;2.28;;;18.20;51.70;;;;;;5053861;28;20215;-85
2023/03/23 06:01:49;;;;;;;9.27;2.58;;;18.30;51.80;;;;;;5054605;28;20202;-86
2023/03/23 06:04:19;;;;;;;10.85;2.42;;;18.20;51.70;;;;;;5054215;28;20247;-85
2023/03/23 06:06:46;;;;;;;7.15;2.65;;;18.30;51.80;;;;;;5054060;28;20196;-86
2023/03/23 06:09:13;;;;;;;9.20;2.30;;;18.30;51.80;;;;;;5053848;28;20281;-85
2023/03/23 06:11:40;;;;;;;7.38;2.30;;;18.30;51.70;;;;;;5054022;28;20641;-85
2023/03/23 06:14:08;;;;;;;7.43;2.13;;;18.30;51.70;;;;;;5053355;28;20708;-86
2023/03/23 06:16:35;;;;;;;9.45;2.72;;;18.40;51.80;;;;;;5053359;28;20653;-85
2023/03/23 06:19:03;;;;;;;5.07;2.00;;;18.40;51.70;;;;;;5054128;28;20269;-85
2023/03/23 06:21:32;;;;;;;11.05;3.00;;;18.40;51.70;;;;;;5053805;28;20290;-85
2023/03/23 06:24:00;;;;;;;7.82;2.30;;;18.40;51.70;;;;;;5053220;28;20194;-85
2023/03/23 06:26:31;;;;;;;10.52;2.60;;;18.40;51.70;;;;;;5053425;28;20631;-85
2023/03/23 06:29:00;;;;;;;12.45;2.38;;;18.40;51.70;;;;;;5053428;28;20206;-84
2023/03/23 06:31:28;;;;;;;8.57;2.20;;;18.40;51.60;;;;;;5053269;28;20606;-85
2023/03/23 06:33:56;;;;;;;5.47;2.20;;;18.40;51.60;;;;;;5052842;28;20657;-85
2023/03/23 06:36:23;;;;;;;7.90;2.20;;;18.50;51.70;;;;;;5053681;28;20211;-85
2023/03/23 06:38:52;;;;;;;10.40;2.30;;;18.50;51.60;;;;;;5053249;28;20199;-86
2023/03/23 06:41:19;;;;;;;8.75;2.50;;;18.50;51.60;;;;;;5052842;28;20238;-86
2023/03/23 06:43:46;;;;;;;9.18;2.30;;;18.50;51.50;;;;;;5053157;28;20195;-86
2023/03/23 06:46:13;;;;;;;7.93;2.40;;;18.50;51.60;;;;;;5053054;28;20269;-85
2023/03/23 06:48:42;;;;;;;9.05;2.42;;;18.60;51.60;;;;;;5052804;28;20195;-85
2023/03/23 06:51:09;;;;;;;10.15;2.30;;;18.50;51.50;;;;;;5053093;28;20274;-85
2023/03/23 06:53:36;;;;;;;6.60;2.35;;;18.60;51.60;;;;;;5053345;28;20650;-85
2023/03/23 06:56:05;;;;;;;8.73;2.15;;;18.60;51.50;;;;;;5052994;28;20219;-85
2023/03/23 06:58:34;;;;;;;10.80;2.60;;;18.60;51.50;;;;;;5052839;28;20218;-85
2023/03/23 07:01:01;;;;;;;9.80;2.50;;;18.60;51.50;;;;;;5053129;28;20265;-85
2023/03/23 07:03:30;;;;;;;7.10;2.17;;;18.60;51.40;;;;;;5053248;28;20265;-85
2023/03/23 07:05:58;;;;;;;7.20;2.03;;;18.60;51.40;;;;;;5052742;28;20822;-85
2023/03/23 07:08:26;;;;;;;9.68;2.80;;;18.60;51.40;;;;;;5052916;28;20199;-85
2023/03/23 07:10:54;;;;;;;8.60;2.13;;;18.60;51.40;;;;;;5052998;28;20216;-85
2023/03/23 07:13:23;;;;;;;8.65;2.75;;;18.60;51.40;;;;;;5052763;28;20632;-85
2023/03/23 07:15:50;;;;;;;6.80;2.22;;;18.70;51.40;;;;;;5052560;28;20215;-85
2023/03/23 07:18:18;;;;;;;9.80;2.55;;;18.60;51.30;;;;;;5052922;28;20237;-85
2023/03/23 07:20:48;;;;;;;8.35;2.38;;;18.60;51.30;;;;;;5052992;28;20227;-85
2023/03/23 07:23:16;;;;;;;8.38;2.30;;;18.70;51.40;;;;;;5052708;28;20274;-85
2023/03/23 07:25:44;;;;;;;11.27;2.58;;;18.70;51.40;;;;;;5052839;28;20234;-86
2023/03/23 07:28:12;;;;;;;8.98;2.58;;;18.70;51.40;;;;;;5052841;28;20211;-85
2023/03/23 07:30:41;;;;;;;8.40;2.38;;;18.70;51.40;;;;;;5052349;28;20759;-85
2023/03/23 07:33:09;;;;;;;10.55;3.17;;;18.70;51.40;;;;;;5052009;28;20651;-85
2023/03/23 07:35:37;;;;;;;10.52;2.53;;;18.70;51.40;;;;;;5052164;28;20277;-85
2023/03/23 07:38:06;;;;;;;7.53;2.20;;;18.70;51.40;;;;;;5052701;28;20200;-85
2023/03/23 07:40:34;;;;;;;8.68;2.40;;;18.70;51.40;;;;;;5052700;28;20216;-85
2023/03/23 07:43:03;;;;;;;7.03;2.20;;;18.70;51.40;;;;;;5052157;28;20226;-85
2023/03/23 07:45:31;;;;;;;7.35;2.53;;;18.70;51.40;;;;;;5052231;28;20571;-84
2023/03/23 07:48:00;;;;;;;13.23;2.80;;;18.80;51.40;;;;;;5052399;28;20245;-85
2023/03/23 07:50:28;;;;;;;12.88;3.08;;;18.80;51.40;;;;;;5052396;28;20631;-85
2023/03/23 07:52:57;;;;;;;9.93;3.10;;;18.80;51.40;;;;;;5051879;28;20196;-85
2023/03/23 07:55:25;;;;;;;13.20;2.95;;;18.80;51.40;;;;;;5052242;28;20654;-85
2023/03/23 07:57:53;;;;;;;9.70;2.78;;;18.80;51.40;;;;;;5052103;28;20188;-85
2023/03/23 08:00:23;;;;;;;10.68;2.60;;;18.80;52.00;;;;;;5055453;28;20215;-85
2023/03/23 08:02:52;;;;;;;7.55;2.22;;;18.80;51.30;;;;;;5048504;28;20243;-84
2023/03/23 08:05:21;;;;;;;9.13;2.53;;;18.80;51.30;;;;;;5044281;28;20276;-84
2023/03/23 08:07:51;;;;;;;8.38;2.58;;;18.80;51.30;;;;;;5044516;28;20191;-85
2023/03/23 08:10:21;;;;;;;6.80;2.53;;;18.80;51.30;;;;;;5054970;28;20728;-85
2023/03/23 08:12:52;;;;;;;9.98;2.53;;;18.80;51.30;;;;;;5021377;28;20210;-80
2023/03/23 08:15:21;;;;;;;9.77;3.33;;;18.80;51.30;;;;;;5056729;28;20227;-80
2023/03/23 08:17:48;;;;;;;12.23;2.63;;;18.80;51.20;;;;;;5054804;28;20261;-80
2023/03/23 08:20:17;;;;;;;10.23;2.45;;;18.90;51.20;;;;;;5053966;28;20242;-80
2023/03/23 08:22:46;;;;;;;13.15;3.22;;;18.90;51.20;;;;;;5054835;28;20191;-80
2023/03/23 08:25:17;;;;;;;8.23;2.67;;;18.90;51.20;;;;;;5054550;28;20215;-80
2023/03/23 08:27:44;;;;;;;15.88;2.72;;;18.90;51.20;;;;;;5054753;28;20271;-84
2023/03/23 08:30:13;;;;;;;12.15;2.95;;;18.90;51.20;;;;;;5051780;28;20565;-83
2023/03/23 08:32:41;;;;;;;12.32;2.90;;;19.00;51.30;;;;;;5048984;28;20228;-81
2023/03/23 08:35:09;;;;;;;13.88;2.92;;;19.00;51.30;;;;;;5055310;28;20579;-83
2023/03/23 08:37:36;;;;;;;11.90;3.15;;;19.00;51.30;;;;;;5054323;28;20278;-83
2023/03/23 08:40:09;;;;;;;10.70;3.13;;;19.10;51.30;;;;;;5054320;28;20224;-82
2023/03/23 08:42:37;;;;;;;9.20;2.42;;;19.10;51.30;;;;;;5054011;28;20274;-81
2023/03/23 08:45:05;;;;;;;8.52;2.58;;;19.10;51.20;;;;;;5054245;28;20226;-80
2023/03/23 08:47:32;;;;;;;11.80;3.28;;;19.10;51.20;;;;;;5056623;28;20699;-82
2023/03/23 08:49:59;;;;;;;10.15;3.05;;;19.10;51.20;;;;;;5070196;28;20222;-81
2023/03/23 08:52:26;;;;;;;10.90;3.00;;;19.10;51.20;;;;;;5047399;28;20203;-81
2023/03/23 08:54:55;;;;;;;10.15;3.20;;;19.10;51.20;;;;;;5073555;28;20238;-79
2023/03/23 08:57:24;;;;;;;14.13;3.70;;;19.20;51.20;;;;;;5074087;28;20198;-81
2023/03/23 08:59:51;;;;;;;11.23;2.88;;;19.20;51.30;;;;;;5049877;28;20227;-82
2023/03/23 09:02:18;;;;;;;11.38;3.08;;;19.20;51.20;;;;;;5050977;28;20203;-84
2023/03/23 09:04:45;;;;;;;11.68;3.13;;;19.20;51.80;;;;;;5054182;28;20638;-84
2023/03/23 09:07:14;;;;;;;17.00;3.55;;;19.20;51.20;;;;;;5054046;28;20676;-80
2023/03/23 09:09:42;;;;;;;11.75;3.33;;;19.20;51.20;;;;;;5040983;28;20219;-78
2023/03/23 09:12:10;;;;;;;11.10;3.13;;;19.30;51.30;;;;;;5036482;28;20200;-78
2023/03/23 09:14:39;;;;;;;14.18;3.67;;;19.30;51.30;;;;;;5052532;28;20223;-77
2023/03/23 09:17:08;;;;;;;14.32;3.47;;;19.30;51.30;;;;;;5052814;28;20188;-76
2023/03/23 09:19:35;;;;;;;12.93;3.35;;;19.30;51.20;;;;;;5051742;28;20701;-78
2023/03/23 09:22:03;;;;;;;11.60;3.33;;;19.40;51.30;;;;;;5053051;28;20191;-78
2023/03/23 09:24:30;;;;;;;15.15;3.45;;;19.40;51.20;;;;;;5053257;28;20219;-77
2023/03/23 09:26:58;;;;;;;13.32;3.65;;;19.40;51.20;;;;;;5052991;28;20192;-78
2023/03/23 09:29:26;;;;;;;13.80;3.30;;;19.40;51.10;;;;;;5052875;28;20656;-78
2023/03/23 09:31:55;;;;;;;15.55;3.20;;;19.40;51.10;;;;;;5051852;28;20767;-76
2023/03/23 09:34:23;;;;;;;15.95;3.63;;;19.40;51.10;;;;;;5052777;28;20606;-78
2023/03/23 09:36:51;;;;;;;13.15;3.25;;;19.50;51.10;;;;;;5052746;28;20226;-77
2023/03/23 09:39:19;;;;;;;15.35;3.65;;;19.50;51.00;;;;;;5052709;28;20258;-77
2023/03/23 09:42:13;;;;;;;15.82;3.28;;;19.50;51.00;;;;;;5049237;28;22051;-79
2023/03/23 09:44:51;;;;;;;10.20;3.17;;;19.50;50.90;;;;;;5037568;28;20614;-78
2023/03/23 09:47:25;;;;;;;13.52;3.75;;;19.50;50.90;;;;;;5035198;28;20192;-77
2023/03/23 09:49:58;;;;;;;18.45;3.90;;;19.50;50.90;;;;;;5040431;28;20235;-80
2023/03/23 09:52:38;;;;;;;15.57;3.53;;;19.50;50.90;;;;;;5035115;28;20192;-79
2023/03/23 09:55:08;;;;;;;17.27;3.33;;;19.50;50.90;;;;;;5030520;28;20216;-77
2023/03/23 09:57:42;;;;;;;13.07;3.28;;;19.60;51.00;;;;;;5032887;28;20204;-77
2023/03/23 10:00:16;;;;;;;17.35;4.47;;;19.50;50.90;;;;;;5032711;28;20282;-78
2023/03/23 10:02:56;;;;;;;11.65;3.85;;;19.50;50.90;;;;;;5036678;28;20543;-79
2023/03/23 10:05:35;;;;;;;12.00;3.30;;;19.60;50.90;;;;;;5052493;28;20211;-78
2023/03/23 10:08:07;;;;;;;12.35;3.28;;;19.60;50.80;;;;;;5052693;28;20187;-78
2023/03/23 10:10:47;;;;;;;12.02;3.15;;;19.60;50.80;;;;;;5052258;28;20216;-77
2023/03/23 10:13:22;;;;;;;12.38;3.35;;;19.60;50.70;;;;;;5052197;28;20917;-78
2023/03/23 10:15:51;;;;;;;14.43;3.70;;;19.60;50.70;;;;;;5052557;28;20613;-77
2023/03/23 10:18:26;;;;;;;13.80;3.83;;;19.70;50.70;;;;;;5051922;28;20199;-77
2023/03/23 10:20:57;;;;;;;11.63;3.20;;;19.70;50.70;;;;;;5052446;28;20226;-79
2023/03/23 10:23:46;;;;;;;14.32;3.65;;;19.60;50.60;;;;;;5051786;28;20241;-76
2023/03/23 10:26:22;;;;;;;11.98;3.13;;;19.60;50.60;;;;;;5033396;28;20221;-78
2023/03/23 10:28:55;;;;;;;13.15;3.92;;;19.70;50.70;;;;;;5052032;28;20218;-76
2023/03/23 10:31:26;;;;;;;11.00;3.97;;;19.70;50.70;;;;;;5051835;28;20218;-76
2023/03/23 10:34:00;;;;;;;15.82;4.15;;;19.70;50.70;;;;;;5051848;28;20235;-77
2023/03/23 10:36:31;;;;;;;13.63;3.42;;;19.70;50.70;;;;;;5052259;28;20653;-79
2023/03/23 10:39:04;;;;;;;13.15;3.88;;;19.70;50.70;;;;;;5051717;28;20278;-76
2023/03/23 10:41:31;;;;;;;15.25;3.90;;;19.70;50.70;;;;;;5051627;28;20219;-79
2023/03/23 10:43:59;;;;;;;11.57;3.38;;;19.80;50.70;;;;;;5052118;28;20192;-77
2023/03/23 10:46:48;;;;;;;13.55;3.72;;;19.80;50.70;;;;;;5051912;28;20216;-77
2023/03/23 10:49:22;;;;;;;12.57;3.65;;;19.70;50.60;;;;;;5052382;28;20188;-78
2023/03/23 10:52:00;;;;;;;16.50;4.18;;;19.70;50.70;;;;;;5067323;28;20223;-78
2023/03/23 10:54:33;;;;;;;18.50;3.63;;;19.80;50.80;;;;;;5031086;28;20314;-76
2023/03/23 10:57:00;;;;;;;14.43;3.40;;;19.80;50.70;;;;;;5044764;28;20267;-76
2023/03/23 10:59:32;;;;;;;11.80;3.13;;;19.80;50.70;;;;;;5031909;28;20215;-77
2023/03/23 11:02:03;;;;;;;15.45;4.07;;;19.80;50.80;;;;;;5050399;28;20227;-78
2023/03/23 11:04:34;;;;;;;18.30;3.92;;;19.80;50.70;;;;;;5051766;28;20283;-78
2023/03/23 11:07:05;;;;;;;15.00;3.75;;;19.80;50.70;;;;;;5060216;28;20273;-76
2023/03/23 11:09:37;;;;;;;11.63;3.20;;;19.80;50.70;;;;;;5062655;28;20198;-77
2023/03/23 11:12:05;;;;;;;13.00;3.40;;;19.80;50.70;;;;;;5069745;28;20227;-75
2023/03/23 11:14:37;;;;;;;13.30;3.35;;;19.80;50.70;;;;;;5056112;28;20222;-76
2023/03/23 11:17:06;;;;;;;22.73;4.63;;;19.80;50.70;;;;;;5051148;28;20220;-76
2023/03/23 11:19:37;;;;;;;16.13;3.85;;;19.80;50.70;;;;;;5052113;28;20184;-75
2023/03/23 11:22:09;;;;;;;15.63;3.95;;;19.80;50.60;;;;;;5034724;28;20296;-77
2023/03/23 11:24:49;;;;;;;11.07;3.20;;;19.80;50.70;;;;;;5035153;28;20204;-79
2023/03/23 11:27:17;;;;;;;16.63;4.05;;;19.70;50.60;;;;;;5049589;28;20226;-75
2023/03/23 11:29:54;;;;;;;14.02;3.55;;;19.70;50.60;;;;;;5031518;28;20211;-77
2023/03/23 11:32:27;;;;;;;15.48;4.15;;;19.70;50.70;;;;;;5047581;28;20576;-78
2023/03/23 11:34:59;;;;;;;13.73;3.83;;;19.70;50.60;;;;;;5053997;28;20742;-77
2023/03/23 11:37:32;;;;;;;12.38;3.45;;;19.70;50.70;;;;;;5055558;28;20215;-77
2023/03/23 11:40:06;;;;;;;15.30;3.30;;;19.80;50.70;;;;;;5062059;28;20198;-77
2023/03/23 11:42:38;;;;;;;13.13;4.13;;;19.70;50.60;;;;;;5069662;28;20214;-77
2023/03/23 11:45:22;;;;;;;19.48;6.53;;;19.70;50.70;;;;;;5035528;28;20250;-77
2023/03/23 11:48:01;;;;;;;26.20;9.32;;;19.70;50.60;;;;;;5065250;28;20218;-77
2023/03/23 11:50:33;;;;;;;21.92;8.25;;;19.70;50.60;;;;;;5074918;28;20202;-77
2023/03/23 11:53:09;;;;;;;17.75;7.32;;;19.80;50.60;;;;;;5072545;28;20260;-77
2023/03/23 11:55:52;;;;;;;26.02;7.05;;;19.70;50.50;;;;;;5061144;28;20215;-78
2023/03/23 11:58:21;;;;;;;18.38;6.00;;;19.80;50.60;;;;;;5036126;28;20216;-77
2023/03/23 12:01:06;;;;;;;17.65;5.85;;;19.80;50.70;;;;;;5037300;28;20191;-77
2023/03/23 12:03:50;;;;;;;16.27;5.78;;;19.80;50.60;;;;;;5047558;28;20191;-78
2023/03/23 12:06:26;;;;;;;18.13;7.38;;;19.80;50.70;;;;;;5054808;28;20748;-77
2023/03/23 12:09:06;;;;;;;28.00;12.32;;;19.80;50.70;;;;;;5053945;28;20195;-77
2023/03/23 12:11:41;;;;;;;34.60;14.38;;;19.80;50.60;;;;;;5052461;28;20215;-77
2023/03/23 12:14:19;;;;;;;31.42;16.20;;;19.80;50.60;;;;;;5059722;28;20194;-77
2023/03/23 12:17:01;;;;;;;36.60;17.42;;;19.80;50.60;;;;;;5069848;28;20242;-77
2023/03/23 12:19:36;;;;;;;32.83;16.80;;;19.80;50.50;;;;;;5042055;28;20702;-77
2023/03/23 12:22:16;;;;;;;39.20;16.92;;;19.90;50.60;;;;;;5070125;28;20308;-76
2023/03/23 12:24:55;;;;;;;30.42;14.70;;;19.90;50.60;;;;;;5074096;28;20195;-78
2023/03/23 12:27:30;;;;;;;34.65;13.80;;;19.90;50.50;;;;;;5052649;28;20774;-77
2023/03/23 12:30:12;;;;;;;35.03;17.27;;;19.90;50.50;;;;;;5052599;28;20191;-76
2023/03/23 12:33:08;;;;;;;45.67;22.45;;;19.90;50.50;;;;;;5053853;28;20231;-76
2023/03/23 12:35:46;;;;;;;42.40;23.52;;;19.90;50.40;;;;;;4989614;28;20322;-77
2023/03/23 12:38:33;;;;;;;51.72;24.27;;;19.90;50.40;;;;;;4990880;28;20225;-77
2023/03/23 12:41:13;;;;;;;39.40;19.80;;;19.90;50.50;;;;;;4992297;28;20214;-77
2023/03/23 12:43:49;;;;;;;34.30;18.02;;;19.90;50.40;;;;;;4992384;28;20593;-75
2023/03/23 12:46:40;;;;;;;39.33;18.67;;;19.90;50.40;;;;;;4991496;28;20198;-75
2023/03/23 12:49:12;;;;;;;36.00;18.25;;;20.00;50.60;;;;;;4990892;28;20300;-79
2023/03/23 12:51:45;;;;;;;33.25;14.98;;;20.00;50.60;;;;;;4989919;28;20197;-77
2023/03/23 12:54:20;;;;;;;30.67;14.65;;;20.00;50.60;;;;;;4974224;28;20567;-76
2023/03/23 12:56:54;;;;;;;30.33;11.32;;;20.00;50.50;;;;;;4990627;28;20217;-77
2023/03/23 12:59:28;;;;;;;25.83;10.55;;;20.00;50.60;;;;;;4990628;28;20710;-78